サイパン島 の空港の天気 - METARとTAF

サイパン国際空港 ( PGSN / SPN ) - 北マリアナ諸島 サイパン島
飛行場実況気象(Metar)
観測時間06/26 21:54 ChST (06/26 11:54 UTC)
風向・風速東南東 5m/s
視程10km以上
天気現象
少しの雲 雲底高度 610m
全天を覆う雲 雲底高度 3350m
気温28.9℃
湿度80%
気圧1014.6hPa
METARPGSN 261154Z 11009KT 10SM FEW020 OVC110 29/25 A2990 RMK AO2 SLP146 60002 70010 T02890250 10322 20289 51012 $
過去の天気等 Google飛行場航空写真 Wunderground天気予報

過去48時間のMETAR

飛行場予報(TAF)
発表時間: 6/26 21:22 ChST (6/26 11:22 UTC)
予報対象時間: 26日22時 ChST ~ 27日22時 ChST
風向・風速東南東 6m/s
視程10km以上
天気現象周辺でしゅう雨
少しの雲 雲底高度 610m
全天の8割程度の雲 雲底高度 3,660m
TAF PGSN 261122Z 2612/2712 11011KT P6SM VCSH FEW020 BKN120